sensor_id;sensor_type;location;lat;lon;timestamp;temperature;humidity
37232;DHT22;23125;48.156;15.954;2023-03-05T00:00:52;6.40;49.30
37232;DHT22;23125;48.156;15.954;2023-03-05T00:03:17;6.40;49.40
37232;DHT22;23125;48.156;15.954;2023-03-05T00:05:43;6.40;49.50
37232;DHT22;23125;48.156;15.954;2023-03-05T00:08:09;6.40;49.50
37232;DHT22;23125;48.156;15.954;2023-03-05T00:10:35;6.40;49.60
37232;DHT22;23125;48.156;15.954;2023-03-05T00:13:01;6.40;49.70
37232;DHT22;23125;48.156;15.954;2023-03-05T00:15:27;6.40;49.70
37232;DHT22;23125;48.156;15.954;2023-03-05T00:17:52;6.40;49.80
37232;DHT22;23125;48.156;15.954;2023-03-05T00:20:18;6.40;49.80
37232;DHT22;23125;48.156;15.954;2023-03-05T00:22:44;6.40;49.80
37232;DHT22;23125;48.156;15.954;2023-03-05T00:25:10;6.40;49.80
37232;DHT22;23125;48.156;15.954;2023-03-05T00:27:36;6.40;49.80
37232;DHT22;23125;48.156;15.954;2023-03-05T00:30:02;6.40;49.90
37232;DHT22;23125;48.156;15.954;2023-03-05T00:32:28;6.40;49.90
37232;DHT22;23125;48.156;15.954;2023-03-05T00:34:53;6.40;50.00
37232;DHT22;23125;48.156;15.954;2023-03-05T00:37:19;6.40;49.90
37232;DHT22;23125;48.156;15.954;2023-03-05T00:39:45;6.40;49.90
37232;DHT22;23125;48.156;15.954;2023-03-05T00:42:11;6.40;50.00
37232;DHT22;23125;48.156;15.954;2023-03-05T00:44:37;6.40;50.00
37232;DHT22;23125;48.156;15.954;2023-03-05T00:47:03;6.40;50.10
37232;DHT22;23125;48.156;15.954;2023-03-05T00:49:29;6.40;50.10
37232;DHT22;23125;48.156;15.954;2023-03-05T00:51:55;6.40;50.10
37232;DHT22;23125;48.156;15.954;2023-03-05T00:54:21;6.40;50.20
37232;DHT22;23125;48.156;15.954;2023-03-05T00:56:47;6.40;50.90
37232;DHT22;23125;48.156;15.954;2023-03-05T00:59:13;6.40;50.30
37232;DHT22;23125;48.156;15.954;2023-03-05T01:01:39;6.40;50.30
37232;DHT22;23125;48.156;15.954;2023-03-05T01:04:05;6.40;50.40
37232;DHT22;23125;48.156;15.954;2023-03-05T01:06:31;6.40;50.30
37232;DHT22;23125;48.156;15.954;2023-03-05T01:08:56;6.40;50.30
37232;DHT22;23125;48.156;15.954;2023-03-05T01:11:24;6.40;50.40
37232;DHT22;23125;48.156;15.954;2023-03-05T01:13:50;6.40;50.30
37232;DHT22;23125;48.156;15.954;2023-03-05T01:16:16;6.40;50.40
37232;DHT22;23125;48.156;15.954;2023-03-05T01:18:42;6.40;50.40
37232;DHT22;23125;48.156;15.954;2023-03-05T01:21:09;6.30;50.40
37232;DHT22;23125;48.156;15.954;2023-03-05T01:23:34;6.40;50.50
37232;DHT22;23125;48.156;15.954;2023-03-05T01:26:02;6.40;50.60
37232;DHT22;23125;48.156;15.954;2023-03-05T01:28:28;6.30;50.60
37232;DHT22;23125;48.156;15.954;2023-03-05T01:30:53;6.30;50.70
37232;DHT22;23125;48.156;15.954;2023-03-05T01:33:19;6.30;50.70
37232;DHT22;23125;48.156;15.954;2023-03-05T01:35:47;6.30;50.70
37232;DHT22;23125;48.156;15.954;2023-03-05T01:38:14;6.30;50.80
37232;DHT22;23125;48.156;15.954;2023-03-05T01:40:41;6.30;50.70
37232;DHT22;23125;48.156;15.954;2023-03-05T01:43:24;6.30;50.80
37232;DHT22;23125;48.156;15.954;2023-03-05T01:48:39;6.30;51.00
37232;DHT22;23125;48.156;15.954;2023-03-05T01:51:07;6.30;51.00
37232;DHT22;23125;48.156;15.954;2023-03-05T01:53:33;6.30;51.00
37232;DHT22;23125;48.156;15.954;2023-03-05T01:55:59;6.40;51.00
37232;DHT22;23125;48.156;15.954;2023-03-05T01:58:25;6.30;51.00
37232;DHT22;23125;48.156;15.954;2023-03-05T02:00:52;6.30;51.00
37232;DHT22;23125;48.156;15.954;2023-03-05T02:03:20;6.30;51.10
37232;DHT22;23125;48.156;15.954;2023-03-05T02:05:47;6.30;51.10
37232;DHT22;23125;48.156;15.954;2023-03-05T02:08:17;6.40;51.10
37232;DHT22;23125;48.156;15.954;2023-03-05T02:10:45;6.40;51.20
37232;DHT22;23125;48.156;15.954;2023-03-05T02:13:16;6.40;51.20
37232;DHT22;23125;48.156;15.954;2023-03-05T02:15:42;6.40;51.20
37232;DHT22;23125;48.156;15.954;2023-03-05T02:18:09;6.40;51.20
37232;DHT22;23125;48.156;15.954;2023-03-05T02:23:22;6.30;51.30
37232;DHT22;23125;48.156;15.954;2023-03-05T02:25:48;6.40;51.20
37232;DHT22;23125;48.156;15.954;2023-03-05T02:30:45;6.30;51.40
37232;DHT22;23125;48.156;15.954;2023-03-05T02:33:13;6.30;51.40
37232;DHT22;23125;48.156;15.954;2023-03-05T02:35:40;6.30;51.40
37232;DHT22;23125;48.156;15.954;2023-03-05T02:38:09;6.30;51.50
37232;DHT22;23125;48.156;15.954;2023-03-05T02:40:35;6.30;51.50
37232;DHT22;23125;48.156;15.954;2023-03-05T02:43:01;6.30;51.50
37232;DHT22;23125;48.156;15.954;2023-03-05T02:45:27;6.30;51.60
37232;DHT22;23125;48.156;15.954;2023-03-05T02:47:53;6.30;51.60
37232;DHT22;23125;48.156;15.954;2023-03-05T02:50:20;6.30;51.60
37232;DHT22;23125;48.156;15.954;2023-03-05T02:52:46;6.40;51.70
37232;DHT22;23125;48.156;15.954;2023-03-05T02:55:12;6.30;51.60
37232;DHT22;23125;48.156;15.954;2023-03-05T02:57:38;6.30;51.70
37232;DHT22;23125;48.156;15.954;2023-03-05T03:00:05;6.30;51.70
37232;DHT22;23125;48.156;15.954;2023-03-05T03:02:31;6.30;51.80
37232;DHT22;23125;48.156;15.954;2023-03-05T03:04:57;6.30;51.80
37232;DHT22;23125;48.156;15.954;2023-03-05T03:07:23;6.30;52.40
37232;DHT22;23125;48.156;15.954;2023-03-05T03:09:49;6.30;51.80
37232;DHT22;23125;48.156;15.954;2023-03-05T03:12:15;6.30;51.90
37232;DHT22;23125;48.156;15.954;2023-03-05T03:14:42;6.30;51.90
37232;DHT22;23125;48.156;15.954;2023-03-05T03:17:10;6.30;51.90
37232;DHT22;23125;48.156;15.954;2023-03-05T03:19:37;6.30;52.00
37232;DHT22;23125;48.156;15.954;2023-03-05T03:22:04;6.40;52.00
37232;DHT22;23125;48.156;15.954;2023-03-05T03:24:31;6.30;52.00
37232;DHT22;23125;48.156;15.954;2023-03-05T03:26:57;6.30;52.00
37232;DHT22;23125;48.156;15.954;2023-03-05T03:29:24;6.30;52.10
37232;DHT22;23125;48.156;15.954;2023-03-05T03:31:50;6.30;52.10
37232;DHT22;23125;48.156;15.954;2023-03-05T03:34:16;6.30;52.10
37232;DHT22;23125;48.156;15.954;2023-03-05T03:36:44;6.30;52.20
37232;DHT22;23125;48.156;15.954;2023-03-05T03:39:11;6.30;52.20
37232;DHT22;23125;48.156;15.954;2023-03-05T03:41:47;6.30;52.20
37232;DHT22;23125;48.156;15.954;2023-03-05T03:44:14;6.30;52.30
37232;DHT22;23125;48.156;15.954;2023-03-05T03:46:43;6.30;52.30
37232;DHT22;23125;48.156;15.954;2023-03-05T03:49:18;6.30;52.40
37232;DHT22;23125;48.156;15.954;2023-03-05T03:51:45;6.30;52.50
37232;DHT22;23125;48.156;15.954;2023-03-05T03:54:13;6.30;52.60
37232;DHT22;23125;48.156;15.954;2023-03-05T03:56:39;6.30;52.60
37232;DHT22;23125;48.156;15.954;2023-03-05T03:59:05;6.30;52.60
37232;DHT22;23125;48.156;15.954;2023-03-05T04:01:31;6.30;52.60
37232;DHT22;23125;48.156;15.954;2023-03-05T04:03:56;6.30;52.60
37232;DHT22;23125;48.156;15.954;2023-03-05T04:06:23;6.30;52.70
37232;DHT22;23125;48.156;15.954;2023-03-05T04:08:49;6.30;52.70
37232;DHT22;23125;48.156;15.954;2023-03-05T04:11:15;6.30;52.80
37232;DHT22;23125;48.156;15.954;2023-03-05T04:13:45;6.30;52.80
37232;DHT22;23125;48.156;15.954;2023-03-05T04:16:12;6.30;53.40
37232;DHT22;23125;48.156;15.954;2023-03-05T04:18:38;6.30;52.90
37232;DHT22;23125;48.156;15.954;2023-03-05T04:21:04;6.30;52.90
37232;DHT22;23125;48.156;15.954;2023-03-05T04:23:30;6.30;53.00
37232;DHT22;23125;48.156;15.954;2023-03-05T04:25:56;6.30;53.00
37232;DHT22;23125;48.156;15.954;2023-03-05T04:28:22;6.20;53.00
37232;DHT22;23125;48.156;15.954;2023-03-05T04:30:48;6.30;53.10
37232;DHT22;23125;48.156;15.954;2023-03-05T04:33:14;6.20;53.10
37232;DHT22;23125;48.156;15.954;2023-03-05T04:35:40;6.20;53.10
37232;DHT22;23125;48.156;15.954;2023-03-05T04:38:05;6.20;53.10
37232;DHT22;23125;48.156;15.954;2023-03-05T04:40:32;6.20;53.10
37232;DHT22;23125;48.156;15.954;2023-03-05T04:42:58;6.30;53.20
37232;DHT22;23125;48.156;15.954;2023-03-05T04:45:24;6.20;53.20
37232;DHT22;23125;48.156;15.954;2023-03-05T04:47:50;6.20;53.20
37232;DHT22;23125;48.156;15.954;2023-03-05T04:50:16;6.20;53.30
37232;DHT22;23125;48.156;15.954;2023-03-05T04:52:44;6.20;53.50
37232;DHT22;23125;48.156;15.954;2023-03-05T04:55:12;6.30;53.50
37232;DHT22;23125;48.156;15.954;2023-03-05T04:57:38;6.20;53.40
37232;DHT22;23125;48.156;15.954;2023-03-05T05:00:06;6.20;53.50
37232;DHT22;23125;48.156;15.954;2023-03-05T05:02:34;6.20;53.50
37232;DHT22;23125;48.156;15.954;2023-03-05T05:04:59;6.20;53.60
37232;DHT22;23125;48.156;15.954;2023-03-05T05:07:25;6.20;53.60
37232;DHT22;23125;48.156;15.954;2023-03-05T05:09:51;6.20;53.60
37232;DHT22;23125;48.156;15.954;2023-03-05T05:12:17;6.20;53.60
37232;DHT22;23125;48.156;15.954;2023-03-05T05:14:43;6.20;53.70
37232;DHT22;23125;48.156;15.954;2023-03-05T05:17:08;6.30;53.80
37232;DHT22;23125;48.156;15.954;2023-03-05T05:19:34;6.20;53.80
37232;DHT22;23125;48.156;15.954;2023-03-05T05:22:01;6.20;53.70
37232;DHT22;23125;48.156;15.954;2023-03-05T05:24:27;6.20;53.80
37232;DHT22;23125;48.156;15.954;2023-03-05T05:26:54;6.20;53.80
37232;DHT22;23125;48.156;15.954;2023-03-05T05:29:20;6.30;54.00
37232;DHT22;23125;48.156;15.954;2023-03-05T05:31:46;6.20;53.90
37232;DHT22;23125;48.156;15.954;2023-03-05T05:34:12;6.20;54.00
37232;DHT22;23125;48.156;15.954;2023-03-05T05:36:39;6.20;54.00
37232;DHT22;23125;48.156;15.954;2023-03-05T05:39:05;6.30;54.10
37232;DHT22;23125;48.156;15.954;2023-03-05T05:41:30;6.30;54.10
37232;DHT22;23125;48.156;15.954;2023-03-05T05:43:56;6.30;54.10
37232;DHT22;23125;48.156;15.954;2023-03-05T05:46:22;6.30;54.20
37232;DHT22;23125;48.156;15.954;2023-03-05T05:48:49;6.30;54.20
37232;DHT22;23125;48.156;15.954;2023-03-05T05:51:20;6.30;54.20
37232;DHT22;23125;48.156;15.954;2023-03-05T05:53:47;6.30;54.30
37232;DHT22;23125;48.156;15.954;2023-03-05T05:56:14;6.30;54.30
37232;DHT22;23125;48.156;15.954;2023-03-05T05:58:43;6.30;54.30
37232;DHT22;23125;48.156;15.954;2023-03-05T06:03:41;6.30;54.40
37232;DHT22;23125;48.156;15.954;2023-03-05T06:06:10;6.30;54.30
37232;DHT22;23125;48.156;15.954;2023-03-05T06:08:37;6.40;54.50
37232;DHT22;23125;48.156;15.954;2023-03-05T06:11:03;6.40;54.40
37232;DHT22;23125;48.156;15.954;2023-03-05T06:13:29;6.30;54.30
37232;DHT22;23125;48.156;15.954;2023-03-05T06:15:56;6.40;54.40
37232;DHT22;23125;48.156;15.954;2023-03-05T06:18:23;6.40;54.40
37232;DHT22;23125;48.156;15.954;2023-03-05T06:21:00;6.40;54.50
37232;DHT22;23125;48.156;15.954;2023-03-05T06:23:27;6.40;54.50
37232;DHT22;23125;48.156;15.954;2023-03-05T06:25:57;6.40;54.50
37232;DHT22;23125;48.156;15.954;2023-03-05T06:28:23;6.40;54.60
37232;DHT22;23125;48.156;15.954;2023-03-05T06:30:49;6.40;54.50
37232;DHT22;23125;48.156;15.954;2023-03-05T06:33:14;6.40;54.60
37232;DHT22;23125;48.156;15.954;2023-03-05T06:35:40;6.40;54.60
37232;DHT22;23125;48.156;15.954;2023-03-05T06:38:07;6.40;54.70
37232;DHT22;23125;48.156;15.954;2023-03-05T06:40:34;6.40;54.70
37232;DHT22;23125;48.156;15.954;2023-03-05T06:43:00;6.40;54.70
37232;DHT22;23125;48.156;15.954;2023-03-05T06:45:26;6.40;54.60
37232;DHT22;23125;48.156;15.954;2023-03-05T06:47:52;6.50;54.60
37232;DHT22;23125;48.156;15.954;2023-03-05T06:50:18;6.50;54.70
37232;DHT22;23125;48.156;15.954;2023-03-05T06:52:44;6.40;54.60
37232;DHT22;23125;48.156;15.954;2023-03-05T06:55:10;6.40;54.70
37232;DHT22;23125;48.156;15.954;2023-03-05T06:57:36;6.40;54.70
37232;DHT22;23125;48.156;15.954;2023-03-05T07:00:03;6.50;54.70
37232;DHT22;23125;48.156;15.954;2023-03-05T07:02:35;6.40;54.70
37232;DHT22;23125;48.156;15.954;2023-03-05T07:05:01;6.50;54.70
37232;DHT22;23125;48.156;15.954;2023-03-05T07:07:27;6.50;54.80
37232;DHT22;23125;48.156;15.954;2023-03-05T07:09:53;6.40;54.80
37232;DHT22;23125;48.156;15.954;2023-03-05T07:12:19;6.50;54.80
37232;DHT22;23125;48.156;15.954;2023-03-05T07:14:44;6.40;54.80
37232;DHT22;23125;48.156;15.954;2023-03-05T07:17:10;6.40;54.80
37232;DHT22;23125;48.156;15.954;2023-03-05T07:19:37;6.50;54.90
37232;DHT22;23125;48.156;15.954;2023-03-05T07:22:06;6.50;54.90
37232;DHT22;23125;48.156;15.954;2023-03-05T07:24:32;6.50;54.90
37232;DHT22;23125;48.156;15.954;2023-03-05T07:26:58;6.50;55.00
37232;DHT22;23125;48.156;15.954;2023-03-05T07:29:26;6.50;54.90
37232;DHT22;23125;48.156;15.954;2023-03-05T07:31:52;6.50;55.00
37232;DHT22;23125;48.156;15.954;2023-03-05T07:34:19;6.50;55.00
37232;DHT22;23125;48.156;15.954;2023-03-05T07:36:48;6.50;55.10
37232;DHT22;23125;48.156;15.954;2023-03-05T07:39:14;6.50;55.10
37232;DHT22;23125;48.156;15.954;2023-03-05T07:41:42;6.50;55.10
37232;DHT22;23125;48.156;15.954;2023-03-05T07:44:08;6.60;55.20
37232;DHT22;23125;48.156;15.954;2023-03-05T07:46:35;6.60;55.20
37232;DHT22;23125;48.156;15.954;2023-03-05T07:49:01;6.60;55.20
37232;DHT22;23125;48.156;15.954;2023-03-05T07:51:27;6.60;55.10
37232;DHT22;23125;48.156;15.954;2023-03-05T07:53:55;6.60;55.10
37232;DHT22;23125;48.156;15.954;2023-03-05T07:56:30;6.60;55.20
37232;DHT22;23125;48.156;15.954;2023-03-05T07:58:58;6.60;55.30
37232;DHT22;23125;48.156;15.954;2023-03-05T08:01:24;6.70;55.30
37232;DHT22;23125;48.156;15.954;2023-03-05T08:03:50;6.70;55.30
37232;DHT22;23125;48.156;15.954;2023-03-05T08:06:16;6.70;55.20
37232;DHT22;23125;48.156;15.954;2023-03-05T08:08:42;6.70;55.20
37232;DHT22;23125;48.156;15.954;2023-03-05T08:11:11;6.70;55.30
37232;DHT22;23125;48.156;15.954;2023-03-05T08:13:38;6.70;55.40
37232;DHT22;23125;48.156;15.954;2023-03-05T08:16:05;6.80;55.40
37232;DHT22;23125;48.156;15.954;2023-03-05T08:18:32;6.80;55.40
37232;DHT22;23125;48.156;15.954;2023-03-05T08:20:58;6.80;55.30
37232;DHT22;23125;48.156;15.954;2023-03-05T08:23:24;6.80;55.30
37232;DHT22;23125;48.156;15.954;2023-03-05T08:25:50;6.80;55.30
37232;DHT22;23125;48.156;15.954;2023-03-05T08:28:16;6.90;55.30
37232;DHT22;23125;48.156;15.954;2023-03-05T08:30:48;6.90;55.40
37232;DHT22;23125;48.156;15.954;2023-03-05T08:33:15;6.90;55.50
37232;DHT22;23125;48.156;15.954;2023-03-05T08:35:44;6.90;55.40
37232;DHT22;23125;48.156;15.954;2023-03-05T08:38:10;7.00;55.60
37232;DHT22;23125;48.156;15.954;2023-03-05T08:40:36;7.00;55.60
37232;DHT22;23125;48.156;15.954;2023-03-05T08:43:02;7.00;55.70
37232;DHT22;23125;48.156;15.954;2023-03-05T08:45:30;7.10;55.80
37232;DHT22;23125;48.156;15.954;2023-03-05T08:47:56;7.20;56.40
37232;DHT22;23125;48.156;15.954;2023-03-05T08:50:22;7.20;55.80
37232;DHT22;23125;48.156;15.954;2023-03-05T08:52:49;7.30;55.80
37232;DHT22;23125;48.156;15.954;2023-03-05T08:55:15;7.30;55.70
37232;DHT22;23125;48.156;15.954;2023-03-05T08:57:41;7.40;55.60
37232;DHT22;23125;48.156;15.954;2023-03-05T09:00:08;7.40;55.60
37232;DHT22;23125;48.156;15.954;2023-03-05T09:02:35;7.50;56.30
37232;DHT22;23125;48.156;15.954;2023-03-05T09:05:02;7.60;55.90
37232;DHT22;23125;48.156;15.954;2023-03-05T09:07:28;7.60;55.90
37232;DHT22;23125;48.156;15.954;2023-03-05T09:09:54;7.70;55.80
37232;DHT22;23125;48.156;15.954;2023-03-05T09:12:20;7.70;55.60
37232;DHT22;23125;48.156;15.954;2023-03-05T09:14:46;7.80;55.60
37232;DHT22;23125;48.156;15.954;2023-03-05T09:17:11;7.80;55.60
37232;DHT22;23125;48.156;15.954;2023-03-05T09:19:37;7.90;55.70
37232;DHT22;23125;48.156;15.954;2023-03-05T09:22:03;8.00;55.70
37232;DHT22;23125;48.156;15.954;2023-03-05T09:24:29;8.00;55.60
37232;DHT22;23125;48.156;15.954;2023-03-05T09:26:58;8.00;55.60
37232;DHT22;23125;48.156;15.954;2023-03-05T09:29:25;8.10;55.60
37232;DHT22;23125;48.156;15.954;2023-03-05T09:31:52;8.20;55.60
37232;DHT22;23125;48.156;15.954;2023-03-05T09:34:18;8.20;55.40
37232;DHT22;23125;48.156;15.954;2023-03-05T09:36:44;8.20;55.40
37232;DHT22;23125;48.156;15.954;2023-03-05T09:39:09;8.30;55.30
37232;DHT22;23125;48.156;15.954;2023-03-05T09:47:50;8.40;55.40
37232;DHT22;23125;48.156;15.954;2023-03-05T09:52:53;8.60;55.60
37232;DHT22;23125;48.156;15.954;2023-03-05T09:57:56;8.70;55.50
37232;DHT22;23125;48.156;15.954;2023-03-05T10:00:32;8.80;55.60
37232;DHT22;23125;48.156;15.954;2023-03-05T10:03:03;8.90;55.50
37232;DHT22;23125;48.156;15.954;2023-03-05T10:08:16;9.10;55.50
37232;DHT22;23125;48.156;15.954;2023-03-05T10:10:47;9.20;55.50
37232;DHT22;23125;48.156;15.954;2023-03-05T10:13:26;9.30;55.50
37232;DHT22;23125;48.156;15.954;2023-03-05T10:16:32;9.40;55.40
37232;DHT22;23125;48.156;15.954;2023-03-05T10:22:21;9.60;55.10
37232;DHT22;23125;48.156;15.954;2023-03-05T10:25:16;9.60;54.80
37232;DHT22;23125;48.156;15.954;2023-03-05T10:27:54;9.60;54.80
37232;DHT22;23125;48.156;15.954;2023-03-05T10:30:31;9.70;54.60
37232;DHT22;23125;48.156;15.954;2023-03-05T10:33:21;9.70;54.50
37232;DHT22;23125;48.156;15.954;2023-03-05T10:36:36;9.80;54.60
37232;DHT22;23125;48.156;15.954;2023-03-05T10:47:25;9.90;54.00
37232;DHT22;23125;48.156;15.954;2023-03-05T10:49:54;9.90;54.00
37232;DHT22;23125;48.156;15.954;2023-03-05T10:52:35;10.00;54.10
37232;DHT22;23125;48.156;15.954;2023-03-05T10:55:17;10.00;53.80
37232;DHT22;23125;48.156;15.954;2023-03-05T10:57:43;10.00;53.70
37232;DHT22;23125;48.156;15.954;2023-03-05T11:00:25;10.00;53.50
37232;DHT22;23125;48.156;15.954;2023-03-05T11:03:07;10.00;53.40
37232;DHT22;23125;48.156;15.954;2023-03-05T11:08:34;10.10;53.70
37232;DHT22;23125;48.156;15.954;2023-03-05T11:11:16;10.20;53.90
37232;DHT22;23125;48.156;15.954;2023-03-05T11:14:00;10.30;53.70
37232;DHT22;23125;48.156;15.954;2023-03-05T11:16:34;10.30;53.60
37232;DHT22;23125;48.156;15.954;2023-03-05T11:19:26;10.40;53.50
37232;DHT22;23125;48.156;15.954;2023-03-05T11:22:17;10.40;53.30
37232;DHT22;23125;48.156;15.954;2023-03-05T11:25:16;10.50;53.20
37232;DHT22;23125;48.156;15.954;2023-03-05T11:27:50;10.60;53.30
37232;DHT22;23125;48.156;15.954;2023-03-05T11:30:25;10.60;53.10
37232;DHT22;23125;48.156;15.954;2023-03-05T11:33:15;10.60;52.80
37232;DHT22;23125;48.156;15.954;2023-03-05T11:35:43;10.60;52.60
37232;DHT22;23125;48.156;15.954;2023-03-05T11:38:26;10.60;52.30
37232;DHT22;23125;48.156;15.954;2023-03-05T11:40:54;10.60;52.30
37232;DHT22;23125;48.156;15.954;2023-03-05T11:43:23;10.60;52.00
37232;DHT22;23125;48.156;15.954;2023-03-05T11:46:03;10.60;51.90
37232;DHT22;23125;48.156;15.954;2023-03-05T11:48:35;10.60;51.70
37232;DHT22;23125;48.156;15.954;2023-03-05T11:52:05;10.50;51.60
37232;DHT22;23125;48.156;15.954;2023-03-05T11:54:05;10.50;51.50
37232;DHT22;23125;48.156;15.954;2023-03-05T11:56:38;10.50;51.70
37232;DHT22;23125;48.156;15.954;2023-03-05T11:59:16;10.50;51.90
37232;DHT22;23125;48.156;15.954;2023-03-05T12:01:52;10.50;51.70
37232;DHT22;23125;48.156;15.954;2023-03-05T12:04:19;10.50;51.60
37232;DHT22;23125;48.156;15.954;2023-03-05T12:06:51;10.60;51.80
37232;DHT22;23125;48.156;15.954;2023-03-05T12:09:41;10.60;51.80
37232;DHT22;23125;48.156;15.954;2023-03-05T12:12:36;10.70;51.50
37232;DHT22;23125;48.156;15.954;2023-03-05T12:20:17;10.80;51.20
37232;DHT22;23125;48.156;15.954;2023-03-05T12:22:50;10.80;51.20
37232;DHT22;23125;48.156;15.954;2023-03-05T12:25:33;10.80;51.10
37232;DHT22;23125;48.156;15.954;2023-03-05T12:28:00;10.90;51.10
37232;DHT22;23125;48.156;15.954;2023-03-05T12:33:30;10.90;50.80
37232;DHT22;23125;48.156;15.954;2023-03-05T12:38:54;10.90;50.20
37232;DHT22;23125;48.156;15.954;2023-03-05T12:46:31;10.90;50.30
37232;DHT22;23125;48.156;15.954;2023-03-05T12:51:55;10.90;50.10
37232;DHT22;23125;48.156;15.954;2023-03-05T12:54:26;11.00;49.80
37232;DHT22;23125;48.156;15.954;2023-03-05T12:57:02;10.90;49.50
37232;DHT22;23125;48.156;15.954;2023-03-05T12:59:53;10.90;49.40
37232;DHT22;23125;48.156;15.954;2023-03-05T13:02:38;10.90;49.50
37232;DHT22;23125;48.156;15.954;2023-03-05T13:05:37;10.90;49.50
37232;DHT22;23125;48.156;15.954;2023-03-05T13:08:26;10.90;49.20
37232;DHT22;23125;48.156;15.954;2023-03-05T13:11:03;10.80;48.90
37232;DHT22;23125;48.156;15.954;2023-03-05T13:13:51;10.70;48.70
37232;DHT22;23125;48.156;15.954;2023-03-05T13:16:28;10.70;49.00
37232;DHT22;23125;48.156;15.954;2023-03-05T13:19:00;10.70;49.10
37232;DHT22;23125;48.156;15.954;2023-03-05T13:21:29;10.60;48.90
37232;DHT22;23125;48.156;15.954;2023-03-05T13:23:57;10.60;48.80
37232;DHT22;23125;48.156;15.954;2023-03-05T13:26:37;10.60;48.80
37232;DHT22;23125;48.156;15.954;2023-03-05T13:29:10;10.50;48.70
37232;DHT22;23125;48.156;15.954;2023-03-05T13:34:22;10.40;48.30
37232;DHT22;23125;48.156;15.954;2023-03-05T13:39:32;10.30;48.10
37232;DHT22;23125;48.156;15.954;2023-03-05T13:42:01;10.20;48.10
37232;DHT22;23125;48.156;15.954;2023-03-05T13:44:28;10.20;48.20
37232;DHT22;23125;48.156;15.954;2023-03-05T13:47:15;10.10;48.30
37232;DHT22;23125;48.156;15.954;2023-03-05T13:49:42;10.00;48.10
37232;DHT22;23125;48.156;15.954;2023-03-05T13:52:09;9.90;48.10
37232;DHT22;23125;48.156;15.954;2023-03-05T13:54:35;9.80;48.10
37232;DHT22;23125;48.156;15.954;2023-03-05T13:57:05;9.80;48.20
37232;DHT22;23125;48.156;15.954;2023-03-05T13:59:33;9.80;48.30
37232;DHT22;23125;48.156;15.954;2023-03-05T14:02:20;9.80;48.30
37232;DHT22;23125;48.156;15.954;2023-03-05T14:04:47;9.70;48.30
37232;DHT22;23125;48.156;15.954;2023-03-05T14:09:48;9.70;48.30
37232;DHT22;23125;48.156;15.954;2023-03-05T14:14:56;9.70;48.60
37232;DHT22;23125;48.156;15.954;2023-03-05T14:17:41;9.80;48.60
37232;DHT22;23125;48.156;15.954;2023-03-05T14:20:18;9.70;48.40
37232;DHT22;23125;48.156;15.954;2023-03-05T14:22:50;9.70;48.30
37232;DHT22;23125;48.156;15.954;2023-03-05T14:25:42;9.80;49.00
37232;DHT22;23125;48.156;15.954;2023-03-05T14:30:51;9.80;48.60
37232;DHT22;23125;48.156;15.954;2023-03-05T14:33:29;9.80;48.40
37232;DHT22;23125;48.156;15.954;2023-03-05T14:35:57;9.90;48.50
37232;DHT22;23125;48.156;15.954;2023-03-05T14:38:30;9.90;48.40
37232;DHT22;23125;48.156;15.954;2023-03-05T14:40:56;9.90;48.40
37232;DHT22;23125;48.156;15.954;2023-03-05T14:43:23;9.90;48.20
37232;DHT22;23125;48.156;15.954;2023-03-05T14:45:48;9.90;48.10
37232;DHT22;23125;48.156;15.954;2023-03-05T14:48:16;9.90;47.90
37232;DHT22;23125;48.156;15.954;2023-03-05T14:50:49;9.80;47.70
37232;DHT22;23125;48.156;15.954;2023-03-05T14:53:23;9.80;47.70
37232;DHT22;23125;48.156;15.954;2023-03-05T14:55:54;9.80;47.60
37232;DHT22;23125;48.156;15.954;2023-03-05T14:58:23;9.70;47.60
37232;DHT22;23125;48.156;15.954;2023-03-05T15:00:51;9.80;47.70
37232;DHT22;23125;48.156;15.954;2023-03-05T15:03:18;9.70;47.70
37232;DHT22;23125;48.156;15.954;2023-03-05T15:05:47;9.70;47.60
37232;DHT22;23125;48.156;15.954;2023-03-05T15:08:26;9.70;47.50
37232;DHT22;23125;48.156;15.954;2023-03-05T15:10:54;9.60;47.40
37232;DHT22;23125;48.156;15.954;2023-03-05T15:13:20;9.60;47.30
37232;DHT22;23125;48.156;15.954;2023-03-05T15:15:47;9.60;47.40
37232;DHT22;23125;48.156;15.954;2023-03-05T15:18:17;9.50;47.50
37232;DHT22;23125;48.156;15.954;2023-03-05T15:20:44;9.50;47.50
37232;DHT22;23125;48.156;15.954;2023-03-05T15:23:10;9.50;47.50
37232;DHT22;23125;48.156;15.954;2023-03-05T15:25:37;9.50;47.50
37232;DHT22;23125;48.156;15.954;2023-03-05T15:28:04;9.50;47.50
37232;DHT22;23125;48.156;15.954;2023-03-05T15:30:32;9.50;47.40
37232;DHT22;23125;48.156;15.954;2023-03-05T15:33:07;9.40;47.40
37232;DHT22;23125;48.156;15.954;2023-03-05T15:35:33;9.50;47.40
37232;DHT22;23125;48.156;15.954;2023-03-05T15:38:00;9.40;47.30
37232;DHT22;23125;48.156;15.954;2023-03-05T15:40:26;9.40;47.30
37232;DHT22;23125;48.156;15.954;2023-03-05T15:42:54;9.40;47.20
37232;DHT22;23125;48.156;15.954;2023-03-05T15:45:21;9.40;47.10
37232;DHT22;23125;48.156;15.954;2023-03-05T15:47:48;9.40;47.10
37232;DHT22;23125;48.156;15.954;2023-03-05T15:50:16;9.30;47.10
37232;DHT22;23125;48.156;15.954;2023-03-05T15:52:42;9.20;47.10
37232;DHT22;23125;48.156;15.954;2023-03-05T15:55:08;9.30;47.20
37232;DHT22;23125;48.156;15.954;2023-03-05T15:57:36;9.30;47.80
37232;DHT22;23125;48.156;15.954;2023-03-05T16:00:06;9.30;47.30
37232;DHT22;23125;48.156;15.954;2023-03-05T16:02:32;9.20;47.20
37232;DHT22;23125;48.156;15.954;2023-03-05T16:04:58;9.20;47.10
37232;DHT22;23125;48.156;15.954;2023-03-05T16:07:24;9.20;47.10
37232;DHT22;23125;48.156;15.954;2023-03-05T16:09:51;9.20;47.20
37232;DHT22;23125;48.156;15.954;2023-03-05T16:12:21;9.10;47.20
37232;DHT22;23125;48.156;15.954;2023-03-05T16:14:49;9.20;47.30
37232;DHT22;23125;48.156;15.954;2023-03-05T16:17:16;9.20;47.20
37232;DHT22;23125;48.156;15.954;2023-03-05T16:19:47;9.10;47.20
37232;DHT22;23125;48.156;15.954;2023-03-05T16:22:14;9.10;47.20
37232;DHT22;23125;48.156;15.954;2023-03-05T16:24:40;9.10;47.10
37232;DHT22;23125;48.156;15.954;2023-03-05T16:27:06;9.10;47.20
37232;DHT22;23125;48.156;15.954;2023-03-05T16:29:32;9.10;47.20
37232;DHT22;23125;48.156;15.954;2023-03-05T16:32:00;9.00;47.10
37232;DHT22;23125;48.156;15.954;2023-03-05T16:34:27;9.00;47.20
37232;DHT22;23125;48.156;15.954;2023-03-05T16:36:53;9.00;47.10
37232;DHT22;23125;48.156;15.954;2023-03-05T16:39:20;9.00;47.20
37232;DHT22;23125;48.156;15.954;2023-03-05T16:41:47;9.00;47.20
37232;DHT22;23125;48.156;15.954;2023-03-05T16:44:12;9.00;47.20
37232;DHT22;23125;48.156;15.954;2023-03-05T16:46:39;9.00;47.20
37232;DHT22;23125;48.156;15.954;2023-03-05T16:49:08;9.00;47.20
37232;DHT22;23125;48.156;15.954;2023-03-05T16:51:34;9.00;47.20